Decoded Metar for KSOP (SOUTHERN PINES in NC, USA) (IATA:SOP) | Meteo·Mobile Aviation Weather
aviador You're here:

KSOP Decoded Metar

SOUTHERN PINES in NC, USA
Report Time2019-02-17 04:56:00
UTC Time2019-02-17 05:52:52
Flight Rules vfr VFR
Wind050° at 03 kt
W.Decomp.*RWY 05: 3.0 kt HW 0.4 kt RCW
W.Rank050° ranks 9
Current wind is below 050° avg. (6.3)
Visibility9999 m
Phenomena:N/A
Clouds:N/A
CeilingNone
Temp02°C (ISA -12)
Dew Point02°C (100% RH)
AAT-0.8°C
QNH1016 hPa
Density Alt-1,010 ft
Elevation463 ft
Report Wrong Elevation
Raw Report
METAR KSOP 170456Z AUTO 05003KT 10SM CLR 02/02 A2999 RMK AO2 SLP175
T00220022 FZRANO=

Extra information for KSOP:More info

Metar Taf Metar & Taf Last 4 Metars F.Rules Stats Wind Profile Meteogram Temp Stats Airport Information Weather charts Add Link Nearby VenuesMetar ALERT Operation Metar Decoded Social comments

AIRNAV info for KSOP